createdAt,value
2023-02-14T00:01:11.385Z,2.01
2023-02-14T00:04:20.330Z,2.00
2023-02-14T00:07:25.805Z,1.97
2023-02-14T00:10:31.994Z,1.90
2023-02-14T00:13:40.135Z,1.91
2023-02-14T00:16:44.225Z,1.88
2023-02-14T00:19:50.648Z,1.87
2023-02-14T00:22:57.218Z,1.86
2023-02-14T00:26:03.077Z,1.85
2023-02-14T00:29:15.502Z,0.57
2023-02-14T00:32:21.678Z,1.88
2023-02-14T00:35:27.981Z,1.90
2023-02-14T00:38:33.971Z,1.93
2023-02-14T00:41:40.715Z,1.84
2023-02-14T00:44:48.946Z,1.76
2023-02-14T00:47:55.457Z,1.73
2023-02-14T00:51:01.001Z,1.67
2023-02-14T00:54:08.139Z,1.70
2023-02-14T00:57:13.604Z,1.67
2023-02-14T01:00:23.898Z,1.67
2023-02-14T01:03:30.111Z,1.23
2023-02-14T01:06:36.705Z,1.68
2023-02-14T01:09:42.360Z,1.58
2023-02-14T01:12:48.630Z,1.54
2023-02-14T01:15:56.779Z,1.48
2023-02-14T01:19:04.265Z,1.44
2023-02-14T01:22:09.674Z,1.36
2023-02-14T01:25:15.890Z,1.31
2023-02-14T01:28:21.509Z,1.33
2023-02-14T01:31:33.871Z,0.94
2023-02-14T01:34:39.434Z,1.37
2023-02-14T01:37:46.323Z,1.41
2023-02-14T01:40:51.717Z,1.43
2023-02-14T01:44:05.744Z,1.36
2023-02-14T01:47:15.910Z,1.32
2023-02-14T01:50:29.983Z,1.35
2023-02-14T01:53:36.365Z,1.37
2023-02-14T01:56:51.285Z,1.42
2023-02-14T02:00:23.410Z,1.40
2023-02-14T02:03:40.451Z,1.42
2023-02-14T02:06:55.079Z,1.42
2023-02-14T02:10:07.871Z,1.43
2023-02-14T02:13:21.574Z,1.41
2023-02-14T02:16:54.262Z,1.43
2023-02-14T02:20:54.213Z,1.49
2023-02-14T02:24:34.350Z,1.55
2023-02-14T02:28:22.154Z,1.60
2023-02-14T02:32:17.535Z,1.51
2023-02-14T02:35:52.606Z,1.49
2023-02-14T02:39:21.507Z,1.51
2023-02-14T02:42:49.497Z,1.49
2023-02-14T02:46:23.755Z,1.55
2023-02-14T02:50:04.524Z,1.58
2023-02-14T02:53:27.426Z,1.60
2023-02-14T02:56:51.330Z,1.60
2023-02-14T03:00:02.656Z,1.58
2023-02-14T03:03:26.436Z,1.61
2023-02-14T03:06:33.646Z,1.07
2023-02-14T03:10:02.291Z,1.57
2023-02-14T03:13:52.846Z,1.52
2023-02-14T03:17:19.009Z,1.52
2023-02-14T03:20:30.349Z,1.49
2023-02-14T03:23:50.704Z,1.43
2023-02-14T03:27:09.321Z,1.40
2023-02-14T03:30:31.584Z,1.44
2023-02-14T03:33:52.122Z,1.33
2023-02-14T03:37:10.223Z,1.38
2023-02-14T03:40:25.704Z,1.39
2023-02-14T03:43:42.793Z,1.35
2023-02-14T03:46:55.748Z,1.34
2023-02-14T03:50:12.221Z,1.32
2023-02-14T03:53:28.004Z,1.34
2023-02-14T03:56:42.186Z,1.29
2023-02-14T03:59:52.820Z,1.29
2023-02-14T04:03:12.019Z,1.22
2023-02-14T04:06:20.700Z,1.19
2023-02-14T04:09:27.309Z,1.18
2023-02-14T04:12:38.084Z,1.16
2023-02-14T04:15:47.811Z,1.18
2023-02-14T04:19:09.021Z,1.16
2023-02-14T04:22:15.368Z,1.15
2023-02-14T04:25:21.123Z,1.12
2023-02-14T04:28:27.348Z,1.08
2023-02-14T04:31:35.509Z,1.11
2023-02-14T04:34:42.619Z,1.07
2023-02-14T04:37:48.635Z,1.15
2023-02-14T04:40:55.943Z,1.21
2023-02-14T04:44:01.364Z,1.14
2023-02-14T04:47:11.760Z,0.96
2023-02-14T04:50:18.149Z,1.00
2023-02-14T04:53:25.358Z,1.05
2023-02-14T04:56:30.922Z,1.02
2023-02-14T04:59:37.460Z,0.98
2023-02-14T05:02:45.613Z,0.88
2023-02-14T05:05:51.905Z,0.85
2023-02-14T05:08:57.703Z,0.95
2023-02-14T05:12:04.158Z,1.03
2023-02-14T05:15:10.144Z,1.08
2023-02-14T05:18:19.192Z,1.16
2023-02-14T05:21:24.566Z,1.09
2023-02-14T05:24:30.801Z,1.09
2023-02-14T05:27:36.432Z,1.04
2023-02-14T05:30:42.801Z,1.15
2023-02-14T05:33:51.355Z,1.19
2023-02-14T05:36:57.889Z,0.87
2023-02-14T05:40:03.558Z,1.17
2023-02-14T05:43:10.925Z,1.08
2023-02-14T05:46:16.529Z,1.17
2023-02-14T05:49:25.609Z,1.17
2023-02-14T05:52:31.516Z,1.26
2023-02-14T05:55:38.036Z,1.36
2023-02-14T05:58:43.495Z,1.42
2023-02-14T06:01:49.849Z,1.51
2023-02-14T06:04:58.065Z,1.51
2023-02-14T06:08:05.623Z,1.45
2023-02-14T06:11:11.060Z,1.48
2023-02-14T06:14:17.384Z,1.47
2023-02-14T06:17:23.140Z,1.49
2023-02-14T06:20:32.973Z,1.45
2023-02-14T06:23:38.410Z,1.50
2023-02-14T06:26:44.815Z,1.49
2023-02-14T06:29:50.606Z,1.58
2023-02-14T06:32:57.353Z,1.62
2023-02-14T06:36:05.465Z,1.53
2023-02-14T06:39:11.728Z,1.54
2023-02-14T06:42:17.094Z,1.49
2023-02-14T06:45:23.295Z,1.44
2023-02-14T06:48:28.782Z,1.41
2023-02-14T06:51:37.933Z,1.51
2023-02-14T06:54:43.624Z,1.46
2023-02-14T06:57:50.015Z,1.50
2023-02-14T07:00:57.758Z,1.50
2023-02-14T07:04:04.214Z,1.51
2023-02-14T07:07:12.307Z,1.53
2023-02-14T07:10:19.549Z,1.51
2023-02-14T07:13:24.906Z,1.56
2023-02-14T07:16:31.148Z,1.56
2023-02-14T07:19:36.867Z,1.65
2023-02-14T07:22:46.150Z,1.60
2023-02-14T07:25:51.539Z,1.55
2023-02-14T07:28:57.733Z,1.54
2023-02-14T07:32:04.328Z,1.51
2023-02-14T07:35:13.316Z,1.45
2023-02-14T07:38:22.492Z,1.62
2023-02-14T07:41:28.735Z,1.69
2023-02-14T07:44:34.331Z,1.63
2023-02-14T07:47:40.635Z,1.76
2023-02-14T07:50:46.276Z,1.66
2023-02-14T07:53:55.270Z,1.71
2023-02-14T07:57:00.749Z,1.72
2023-02-14T08:00:09.720Z,1.78
2023-02-14T08:03:18.624Z,1.76
2023-02-14T08:06:26.247Z,1.84
2023-02-14T08:09:34.423Z,1.91
2023-02-14T08:12:56.611Z,1.92
2023-02-14T08:16:09.774Z,2.01
2023-02-14T08:19:19.397Z,2.03
2023-02-14T08:22:25.030Z,1.98
2023-02-14T08:25:34.664Z,1.91
2023-02-14T08:28:40.427Z,1.90
2023-02-14T08:31:47.628Z,1.02
2023-02-14T08:34:53.051Z,1.81
2023-02-14T08:37:59.418Z,1.81
2023-02-14T08:41:09.215Z,1.82
2023-02-14T08:44:16.678Z,1.91
2023-02-14T08:47:22.046Z,1.83
2023-02-14T08:50:28.315Z,1.79
2023-02-14T08:53:33.682Z,1.80
2023-02-14T08:56:43.050Z,1.92
2023-02-14T08:59:49.005Z,2.11
2023-02-14T09:02:56.792Z,2.17
2023-02-14T09:06:07.130Z,2.23
2023-02-14T09:09:13.400Z,2.27
2023-02-14T09:12:22.158Z,2.27
2023-02-14T09:15:28.560Z,2.35
2023-02-14T09:18:34.448Z,2.39
2023-02-14T09:21:40.770Z,2.45
2023-02-14T09:24:46.686Z,2.56
2023-02-14T09:27:55.642Z,2.68
2023-02-14T09:31:02.010Z,2.71
2023-02-14T09:34:08.477Z,2.77
2023-02-14T09:37:15.680Z,2.76
2023-02-14T09:40:24.268Z,2.84
2023-02-14T09:43:48.816Z,2.90
2023-02-14T09:47:02.463Z,2.99
2023-02-14T09:50:11.163Z,3.10
2023-02-14T09:53:30.113Z,3.23
2023-02-14T09:56:54.383Z,3.25
2023-02-14T10:00:20.851Z,3.33
2023-02-14T10:04:08.818Z,3.39
2023-02-14T10:07:30.217Z,3.21
2023-02-14T10:10:44.835Z,3.27
2023-02-14T10:14:00.464Z,3.32
2023-02-14T10:17:19.912Z,3.45
2023-02-14T10:20:35.402Z,3.56
2023-02-14T10:23:52.403Z,3.55
2023-02-14T10:27:12.886Z,3.57
2023-02-14T10:30:22.564Z,3.54
2023-02-14T10:33:41.234Z,3.57
2023-02-14T10:37:18.618Z,3.62
2023-02-14T10:41:01.278Z,3.67
2023-02-14T10:44:33.560Z,3.72
2023-02-14T10:47:59.251Z,3.73
2023-02-14T10:51:22.315Z,3.75
2023-02-14T10:54:41.922Z,3.61
2023-02-14T10:57:55.001Z,3.52
2023-02-14T11:01:10.036Z,3.04
2023-02-14T11:04:20.039Z,3.56
2023-02-14T11:07:29.962Z,3.60
2023-02-14T11:10:38.024Z,3.54
2023-02-14T11:13:45.656Z,3.41
2023-02-14T11:16:52.142Z,3.35
2023-02-14T11:20:07.345Z,3.34
2023-02-14T11:23:27.560Z,3.34
2023-02-14T11:26:38.408Z,3.34
2023-02-14T11:29:52.715Z,3.38
2023-02-14T11:32:59.559Z,3.43
2023-02-14T11:36:13.800Z,3.51
2023-02-14T11:39:33.235Z,3.56
2023-02-14T11:42:51.601Z,3.56
2023-02-14T11:46:17.634Z,3.64
2023-02-14T11:49:33.811Z,3.56
2023-02-14T11:52:54.041Z,3.63
2023-02-14T11:56:03.457Z,3.64
2023-02-14T11:59:09.907Z,3.66
2023-02-14T12:02:30.512Z,3.74
2023-02-14T12:05:48.908Z,3.74
2023-02-14T12:08:54.436Z,3.82
2023-02-14T12:12:07.700Z,3.91
2023-02-14T12:15:37.913Z,4.02
2023-02-14T12:18:59.267Z,4.12
2023-02-14T12:22:09.673Z,3.15
2023-02-14T12:25:23.880Z,4.22
2023-02-14T12:28:44.184Z,4.26
2023-02-14T12:35:21.655Z,4.13
2023-02-14T12:38:45.666Z,4.03
2023-02-14T12:42:13.506Z,3.98
2023-02-14T12:45:48.053Z,3.92
2023-02-14T12:49:26.380Z,3.91
2023-02-14T12:53:16.005Z,3.84
2023-02-14T12:56:42.267Z,3.91
2023-02-14T13:00:12.490Z,3.92
2023-02-14T13:03:58.528Z,3.99
2023-02-14T13:07:23.888Z,4.07
2023-02-14T13:10:56.548Z,4.13
2023-02-14T13:14:32.169Z,4.05
2023-02-14T13:17:50.164Z,4.13
2023-02-14T13:21:04.488Z,4.16
2023-02-14T13:24:22.974Z,4.06
2023-02-14T13:27:36.576Z,3.99
2023-02-14T13:30:43.713Z,3.27
2023-02-14T13:33:57.754Z,3.85
2023-02-14T13:37:15.740Z,3.98
2023-02-14T13:40:28.233Z,3.99
2023-02-14T13:43:52.178Z,3.78
2023-02-14T13:46:58.630Z,3.91
2023-02-14T13:50:07.943Z,3.97
2023-02-14T13:53:34.731Z,3.89
2023-02-14T13:56:40.521Z,3.89
2023-02-14T13:59:46.798Z,3.92
2023-02-14T14:02:54.941Z,3.93
2023-02-14T14:06:09.685Z,3.90
2023-02-14T14:10:01.795Z,3.87
2023-02-14T14:13:10.834Z,3.85
2023-02-14T14:16:30.804Z,3.85
2023-02-14T14:19:44.349Z,3.84
2023-02-14T14:22:54.040Z,3.85
2023-02-14T14:26:05.986Z,3.96
2023-02-14T14:29:25.113Z,4.06
2023-02-14T14:32:35.361Z,4.08
2023-02-14T14:35:40.738Z,4.11
2023-02-14T14:38:53.728Z,4.05
2023-02-14T14:42:11.603Z,4.01
2023-02-14T14:45:28.780Z,4.00
2023-02-14T14:48:42.982Z,3.96
2023-02-14T14:51:49.683Z,3.91
2023-02-14T14:54:55.870Z,3.87
2023-02-14T14:58:09.310Z,3.57
2023-02-14T15:01:33.087Z,3.37
2023-02-14T15:04:39.477Z,3.44
2023-02-14T15:07:44.949Z,3.46
2023-02-14T15:10:58.997Z,3.36
2023-02-14T15:14:09.158Z,3.37
2023-02-14T15:17:24.446Z,3.29
2023-02-14T15:20:29.863Z,3.26
2023-02-14T15:23:36.352Z,3.27
2023-02-14T15:26:42.072Z,3.28
2023-02-14T15:30:02.594Z,3.30
2023-02-14T15:33:10.740Z,3.33
2023-02-14T15:36:25.843Z,3.32
2023-02-14T15:39:40.196Z,3.34
2023-02-14T15:42:49.037Z,3.27
2023-02-14T15:46:03.162Z,3.34
2023-02-14T15:49:18.092Z,3.34
2023-02-14T15:52:23.883Z,3.35
2023-02-14T15:55:31.061Z,3.30
2023-02-14T15:58:40.455Z,3.27
2023-02-14T16:01:56.353Z,3.26
2023-02-14T16:05:11.313Z,3.22
2023-02-14T16:08:34.168Z,3.28
2023-02-14T16:11:41.460Z,3.27
2023-02-14T16:14:48.591Z,3.27
2023-02-14T16:17:56.891Z,3.26
2023-02-14T16:21:20.226Z,3.23
2023-02-14T16:24:25.624Z,3.27
2023-02-14T16:27:31.864Z,3.28
2023-02-14T16:30:37.475Z,3.31
2023-02-14T16:33:46.510Z,3.34
2023-02-14T16:36:52.698Z,3.39
2023-02-14T16:39:59.647Z,3.47
2023-02-14T16:43:05.080Z,3.45
2023-02-14T16:46:16.005Z,3.43
2023-02-14T16:49:24.684Z,3.40
2023-02-14T16:52:32.858Z,3.39
2023-02-14T16:55:38.692Z,3.34
2023-02-14T16:58:45.116Z,3.26
2023-02-14T17:01:50.562Z,3.22
2023-02-14T17:05:00.158Z,3.20
2023-02-14T17:08:09.338Z,3.23
2023-02-14T17:11:15.763Z,3.24
2023-02-14T17:14:40.132Z,3.23
2023-02-14T17:17:50.667Z,3.14
2023-02-14T17:21:02.294Z,3.17
2023-02-14T17:24:09.295Z,3.19
2023-02-14T17:27:14.673Z,3.19
2023-02-14T17:30:22.158Z,3.13
2023-02-14T17:33:30.584Z,3.04
2023-02-14T17:36:40.582Z,3.05
2023-02-14T17:39:46.151Z,2.97
2023-02-14T17:42:52.337Z,2.97
2023-02-14T17:45:58.398Z,2.95
2023-02-14T17:49:04.913Z,2.98
2023-02-14T17:52:13.060Z,2.95
2023-02-14T17:55:19.364Z,2.95
2023-02-14T17:58:24.806Z,2.99
2023-02-14T18:01:36.472Z,3.04
2023-02-14T18:04:42.487Z,3.06
2023-02-14T18:07:53.881Z,3.06
2023-02-14T18:11:00.087Z,3.06
2023-02-14T18:14:06.538Z,3.07
2023-02-14T18:17:11.964Z,3.17
2023-02-14T18:20:18.479Z,3.22
2023-02-14T18:23:27.243Z,3.24
2023-02-14T18:26:34.474Z,3.28
2023-02-14T18:29:40.360Z,3.31
2023-02-14T18:32:46.589Z,3.27
2023-02-14T18:35:51.995Z,3.26
2023-02-14T18:39:02.026Z,3.28
2023-02-14T18:42:07.407Z,3.32
2023-02-14T18:45:13.697Z,3.36
2023-02-14T18:48:19.066Z,3.42
2023-02-14T18:51:28.504Z,3.39
2023-02-14T18:54:36.757Z,3.52
2023-02-14T18:57:43.544Z,3.48
2023-02-14T19:00:48.981Z,3.43
2023-02-14T19:03:56.370Z,3.37
2023-02-14T19:07:04.608Z,3.37
2023-02-14T19:10:14.779Z,3.34
2023-02-14T19:13:20.975Z,3.29
2023-02-14T19:16:36.950Z,3.28
2023-02-14T19:19:43.103Z,3.23
2023-02-14T19:22:49.630Z,3.19
2023-02-14T19:25:58.008Z,3.20
2023-02-14T19:29:07.402Z,3.18
2023-02-14T19:32:13.359Z,3.15
2023-02-14T19:35:19.675Z,3.16
2023-02-14T19:38:25.016Z,3.16
2023-02-14T19:41:37.545Z,3.03
2023-02-14T19:44:43.153Z,3.19
2023-02-14T19:47:49.627Z,3.17
2023-02-14T19:50:59.560Z,3.17
2023-02-14T19:54:09.894Z,3.13
2023-02-14T19:57:18.704Z,3.13
2023-02-14T20:00:25.502Z,3.15
2023-02-14T20:03:30.933Z,3.19
2023-02-14T20:06:37.187Z,3.25
2023-02-14T20:09:42.795Z,3.24
2023-02-14T20:12:52.159Z,3.25
2023-02-14T20:15:57.512Z,3.25
2023-02-14T20:19:06.585Z,3.18
2023-02-14T20:22:12.012Z,3.16
2023-02-14T20:25:18.292Z,3.16
2023-02-14T20:28:26.440Z,3.22
2023-02-14T20:31:33.746Z,3.32
2023-02-14T20:34:39.358Z,3.39
2023-02-14T20:37:45.857Z,3.43
2023-02-14T20:40:51.180Z,3.46
2023-02-14T20:44:06.985Z,3.47
2023-02-14T20:47:13.261Z,3.49
2023-02-14T20:50:19.935Z,3.50
2023-02-14T20:53:26.580Z,3.49
2023-02-14T20:56:34.028Z,3.47
2023-02-14T20:59:44.873Z,3.43
2023-02-14T21:02:51.312Z,3.37
2023-02-14T21:05:56.745Z,3.34
2023-02-14T21:09:04.232Z,3.32
2023-02-14T21:12:10.778Z,3.36
2023-02-14T21:15:19.960Z,3.37
2023-02-14T21:18:25.409Z,3.42
2023-02-14T21:21:36.555Z,3.39
2023-02-14T21:24:43.346Z,3.39
2023-02-14T21:27:49.602Z,3.35
2023-02-14T21:31:06.907Z,3.42
2023-02-14T21:34:13.289Z,3.44
2023-02-14T21:37:18.857Z,3.50
2023-02-14T21:40:25.084Z,3.53
2023-02-14T21:43:30.407Z,3.59
2023-02-14T21:46:42.552Z,3.65
2023-02-14T21:50:03.606Z,3.68
2023-02-14T21:53:10.143Z,3.70
2023-02-14T21:56:20.430Z,3.75
2023-02-14T21:59:26.751Z,3.76
2023-02-14T22:02:35.373Z,3.77
2023-02-14T22:05:41.601Z,3.77
2023-02-14T22:08:47.455Z,3.76
2023-02-14T22:11:53.640Z,3.71
2023-02-14T22:15:00.453Z,3.62
2023-02-14T22:18:09.481Z,3.56
2023-02-14T22:21:18.116Z,3.45
2023-02-14T22:24:24.637Z,3.44
2023-02-14T22:27:30.389Z,3.42
2023-02-14T22:30:36.684Z,3.34
2023-02-14T22:33:45.059Z,3.34
2023-02-14T22:36:51.450Z,3.32
2023-02-14T22:39:57.651Z,3.32
2023-02-14T22:43:03.881Z,3.32
2023-02-14T22:46:13.394Z,3.32
2023-02-14T22:49:22.409Z,3.39
2023-02-14T22:52:27.858Z,3.40
2023-02-14T22:55:34.380Z,3.44
2023-02-14T22:58:39.797Z,3.41
2023-02-14T23:01:46.803Z,3.43
2023-02-14T23:04:57.326Z,3.42
2023-02-14T23:08:04.871Z,3.42
2023-02-14T23:11:12.795Z,3.42
2023-02-14T23:14:37.223Z,3.41
2023-02-14T23:17:58.440Z,3.39
2023-02-14T23:21:27.395Z,3.39
2023-02-14T23:24:33.055Z,3.40
2023-02-14T23:27:43.352Z,3.37
2023-02-14T23:30:49.248Z,3.43
2023-02-14T23:33:55.573Z,3.44
2023-02-14T23:37:05.124Z,3.45
2023-02-14T23:40:12.974Z,3.41
2023-02-14T23:43:18.389Z,3.32
2023-02-14T23:46:24.875Z,3.26
2023-02-14T23:49:31.767Z,3.20
2023-02-14T23:52:42.021Z,3.18
2023-02-14T23:55:47.642Z,3.19
2023-02-14T23:58:53.896Z,3.19
